sensor_id;sensor_type;location;lat;lon;timestamp;P1;durP1;ratioP1;P2;durP2;ratioP2
54795;SDS011;40693;43.884;20.340;2023-08-07T00:00:36;5.30;;;4.80;;
54795;SDS011;40693;43.884;20.340;2023-08-07T00:03:01;7.07;;;3.78;;
54795;SDS011;40693;43.884;20.340;2023-08-07T00:05:27;6.13;;;4.28;;
54795;SDS011;40693;43.884;20.340;2023-08-07T00:07:53;5.75;;;4.22;;
54795;SDS011;40693;43.884;20.340;2023-08-07T00:10:19;13.50;;;4.82;;
54795;SDS011;40693;43.884;20.340;2023-08-07T00:12:45;6.88;;;3.65;;
54795;SDS011;40693;43.884;20.340;2023-08-07T00:15:11;7.55;;;4.15;;
54795;SDS011;40693;43.884;20.340;2023-08-07T00:17:37;5.10;;;3.97;;
54795;SDS011;40693;43.884;20.340;2023-08-07T00:20:03;4.65;;;4.03;;
54795;SDS011;40693;43.884;20.340;2023-08-07T00:22:29;6.57;;;4.43;;
54795;SDS011;40693;43.884;20.340;2023-08-07T00:24:55;6.03;;;4.13;;
54795;SDS011;40693;43.884;20.340;2023-08-07T00:27:21;9.05;;;4.45;;
54795;SDS011;40693;43.884;20.340;2023-08-07T00:29:47;7.85;;;3.95;;
54795;SDS011;40693;43.884;20.340;2023-08-07T00:32:12;5.00;;;3.80;;
54795;SDS011;40693;43.884;20.340;2023-08-07T00:34:38;5.85;;;3.85;;
54795;SDS011;40693;43.884;20.340;2023-08-07T00:37:04;5.65;;;4.53;;
54795;SDS011;40693;43.884;20.340;2023-08-07T00:39:30;4.47;;;4.00;;
54795;SDS011;40693;43.884;20.340;2023-08-07T00:41:56;6.00;;;4.15;;
54795;SDS011;40693;43.884;20.340;2023-08-07T00:44:21;9.57;;;3.97;;
54795;SDS011;40693;43.884;20.340;2023-08-07T00:46:48;4.45;;;3.80;;
54795;SDS011;40693;43.884;20.340;2023-08-07T00:49:14;6.90;;;4.25;;
54795;SDS011;40693;43.884;20.340;2023-08-07T00:51:42;6.20;;;4.03;;
54795;SDS011;40693;43.884;20.340;2023-08-07T00:54:08;8.25;;;4.20;;
54795;SDS011;40693;43.884;20.340;2023-08-07T00:56:36;4.32;;;3.92;;
54795;SDS011;40693;43.884;20.340;2023-08-07T00:59:04;5.28;;;3.80;;
54795;SDS011;40693;43.884;20.340;2023-08-07T01:01:29;5.20;;;3.85;;
54795;SDS011;40693;43.884;20.340;2023-08-07T01:03:55;7.15;;;3.63;;
54795;SDS011;40693;43.884;20.340;2023-08-07T01:06:21;5.43;;;3.38;;
54795;SDS011;40693;43.884;20.340;2023-08-07T01:08:47;17.60;;;13.30;;
54795;SDS011;40693;43.884;20.340;2023-08-07T01:11:24;10.27;;;8.57;;
54795;SDS011;40693;43.884;20.340;2023-08-07T01:16:48;6.75;;;5.47;;
54795;SDS011;40693;43.884;20.340;2023-08-07T01:19:26;11.95;;;8.25;;
54795;SDS011;40693;43.884;20.340;2023-08-07T01:24:36;6.40;;;5.00;;
54795;SDS011;40693;43.884;20.340;2023-08-07T01:32:47;6.43;;;4.72;;
54795;SDS011;40693;43.884;20.340;2023-08-07T01:35:22;7.40;;;4.65;;
54795;SDS011;40693;43.884;20.340;2023-08-07T01:37:52;6.28;;;3.58;;
54795;SDS011;40693;43.884;20.340;2023-08-07T01:40:20;7.18;;;4.72;;
54795;SDS011;40693;43.884;20.340;2023-08-07T01:42:47;6.57;;;4.32;;
54795;SDS011;40693;43.884;20.340;2023-08-07T01:45:14;6.47;;;4.47;;
54795;SDS011;40693;43.884;20.340;2023-08-07T01:47:46;4.20;;;3.78;;
54795;SDS011;40693;43.884;20.340;2023-08-07T01:50:12;8.75;;;4.43;;
54795;SDS011;40693;43.884;20.340;2023-08-07T01:52:38;6.22;;;4.38;;
54795;SDS011;40693;43.884;20.340;2023-08-07T01:55:04;8.35;;;5.30;;
54795;SDS011;40693;43.884;20.340;2023-08-07T01:57:30;7.45;;;4.30;;
54795;SDS011;40693;43.884;20.340;2023-08-07T01:59:56;9.43;;;4.50;;
54795;SDS011;40693;43.884;20.340;2023-08-07T02:02:21;8.38;;;4.90;;
54795;SDS011;40693;43.884;20.340;2023-08-07T02:04:48;6.35;;;4.75;;
54795;SDS011;40693;43.884;20.340;2023-08-07T02:07:14;6.32;;;4.40;;
54795;SDS011;40693;43.884;20.340;2023-08-07T02:09:40;5.60;;;3.92;;
54795;SDS011;40693;43.884;20.340;2023-08-07T02:12:05;7.38;;;4.53;;
54795;SDS011;40693;43.884;20.340;2023-08-07T02:14:31;6.13;;;4.43;;
54795;SDS011;40693;43.884;20.340;2023-08-07T02:16:57;6.82;;;5.50;;
54795;SDS011;40693;43.884;20.340;2023-08-07T02:19:22;8.48;;;5.40;;
54795;SDS011;40693;43.884;20.340;2023-08-07T02:21:48;9.52;;;6.38;;
54795;SDS011;40693;43.884;20.340;2023-08-07T02:24:14;7.07;;;5.50;;
54795;SDS011;40693;43.884;20.340;2023-08-07T02:26:40;7.35;;;6.18;;
54795;SDS011;40693;43.884;20.340;2023-08-07T02:29:05;7.40;;;5.53;;
54795;SDS011;40693;43.884;20.340;2023-08-07T02:31:34;8.57;;;5.35;;
54795;SDS011;40693;43.884;20.340;2023-08-07T02:33:59;8.48;;;4.85;;
54795;SDS011;40693;43.884;20.340;2023-08-07T02:36:25;9.98;;;5.20;;
54795;SDS011;40693;43.884;20.340;2023-08-07T02:38:51;6.35;;;5.18;;
54795;SDS011;40693;43.884;20.340;2023-08-07T02:41:16;8.20;;;4.93;;
54795;SDS011;40693;43.884;20.340;2023-08-07T02:43:42;11.48;;;6.60;;
54795;SDS011;40693;43.884;20.340;2023-08-07T02:46:08;9.35;;;4.88;;
54795;SDS011;40693;43.884;20.340;2023-08-07T02:48:33;9.68;;;4.90;;
54795;SDS011;40693;43.884;20.340;2023-08-07T02:50:59;8.30;;;5.20;;
54795;SDS011;40693;43.884;20.340;2023-08-07T02:53:25;21.52;;;5.93;;
54795;SDS011;40693;43.884;20.340;2023-08-07T02:55:50;8.25;;;4.95;;
54795;SDS011;40693;43.884;20.340;2023-08-07T02:58:16;6.38;;;5.05;;
54795;SDS011;40693;43.884;20.340;2023-08-07T03:00:42;7.28;;;5.70;;
54795;SDS011;40693;43.884;20.340;2023-08-07T03:03:08;9.93;;;4.50;;
54795;SDS011;40693;43.884;20.340;2023-08-07T03:05:34;9.98;;;6.03;;
54795;SDS011;40693;43.884;20.340;2023-08-07T03:08:00;11.63;;;6.15;;
54795;SDS011;40693;43.884;20.340;2023-08-07T03:10:25;8.60;;;5.93;;
54795;SDS011;40693;43.884;20.340;2023-08-07T03:12:51;7.85;;;5.38;;
54795;SDS011;40693;43.884;20.340;2023-08-07T03:15:17;7.97;;;5.43;;
54795;SDS011;40693;43.884;20.340;2023-08-07T03:17:43;7.15;;;5.38;;
54795;SDS011;40693;43.884;20.340;2023-08-07T03:20:08;6.30;;;5.55;;
54795;SDS011;40693;43.884;20.340;2023-08-07T03:22:35;6.40;;;5.15;;
54795;SDS011;40693;43.884;20.340;2023-08-07T03:25:01;9.52;;;4.82;;
54795;SDS011;40693;43.884;20.340;2023-08-07T03:27:27;7.93;;;5.90;;
54795;SDS011;40693;43.884;20.340;2023-08-07T03:29:53;8.32;;;5.25;;
54795;SDS011;40693;43.884;20.340;2023-08-07T03:32:19;8.55;;;5.40;;
54795;SDS011;40693;43.884;20.340;2023-08-07T03:34:45;9.30;;;4.45;;
54795;SDS011;40693;43.884;20.340;2023-08-07T03:37:10;9.25;;;5.93;;
54795;SDS011;40693;43.884;20.340;2023-08-07T03:39:36;8.02;;;5.13;;
54795;SDS011;40693;43.884;20.340;2023-08-07T03:42:02;6.35;;;5.32;;
54795;SDS011;40693;43.884;20.340;2023-08-07T03:44:28;7.75;;;4.53;;
54795;SDS011;40693;43.884;20.340;2023-08-07T03:46:53;5.88;;;4.75;;
54795;SDS011;40693;43.884;20.340;2023-08-07T03:49:21;8.23;;;5.32;;
54795;SDS011;40693;43.884;20.340;2023-08-07T03:51:48;6.00;;;4.60;;
54795;SDS011;40693;43.884;20.340;2023-08-07T03:54:14;9.43;;;6.15;;
54795;SDS011;40693;43.884;20.340;2023-08-07T03:56:40;11.18;;;5.80;;
54795;SDS011;40693;43.884;20.340;2023-08-07T03:59:05;10.80;;;5.35;;
54795;SDS011;40693;43.884;20.340;2023-08-07T04:01:31;9.30;;;5.78;;
54795;SDS011;40693;43.884;20.340;2023-08-07T04:03:57;11.27;;;6.25;;
54795;SDS011;40693;43.884;20.340;2023-08-07T04:06:23;8.35;;;5.75;;
54795;SDS011;40693;43.884;20.340;2023-08-07T04:08:48;7.55;;;5.68;;
54795;SDS011;40693;43.884;20.340;2023-08-07T04:11:14;7.65;;;5.28;;
54795;SDS011;40693;43.884;20.340;2023-08-07T04:13:40;9.45;;;5.25;;
54795;SDS011;40693;43.884;20.340;2023-08-07T04:16:06;6.68;;;5.18;;
54795;SDS011;40693;43.884;20.340;2023-08-07T04:18:32;11.68;;;6.05;;
54795;SDS011;40693;43.884;20.340;2023-08-07T04:20:58;9.00;;;5.13;;
54795;SDS011;40693;43.884;20.340;2023-08-07T04:23:24;6.85;;;5.78;;
54795;SDS011;40693;43.884;20.340;2023-08-07T04:25:51;11.63;;;7.00;;
54795;SDS011;40693;43.884;20.340;2023-08-07T04:28:18;11.32;;;6.25;;
54795;SDS011;40693;43.884;20.340;2023-08-07T04:30:44;7.28;;;5.93;;
54795;SDS011;40693;43.884;20.340;2023-08-07T04:33:13;9.98;;;6.25;;
54795;SDS011;40693;43.884;20.340;2023-08-07T04:35:39;8.05;;;6.43;;
54795;SDS011;40693;43.884;20.340;2023-08-07T04:38:05;7.95;;;6.28;;
54795;SDS011;40693;43.884;20.340;2023-08-07T04:40:30;10.20;;;6.28;;
54795;SDS011;40693;43.884;20.340;2023-08-07T04:42:56;10.13;;;5.70;;
54795;SDS011;40693;43.884;20.340;2023-08-07T04:45:22;7.55;;;5.60;;
54795;SDS011;40693;43.884;20.340;2023-08-07T04:47:48;7.30;;;5.60;;
54795;SDS011;40693;43.884;20.340;2023-08-07T04:50:13;11.43;;;6.13;;
54795;SDS011;40693;43.884;20.340;2023-08-07T04:52:39;7.00;;;5.63;;
54795;SDS011;40693;43.884;20.340;2023-08-07T04:55:05;16.55;;;6.32;;
54795;SDS011;40693;43.884;20.340;2023-08-07T04:57:31;7.20;;;5.43;;
54795;SDS011;40693;43.884;20.340;2023-08-07T04:59:57;7.68;;;6.18;;
54795;SDS011;40693;43.884;20.340;2023-08-07T05:02:22;10.38;;;6.93;;
54795;SDS011;40693;43.884;20.340;2023-08-07T05:04:48;9.95;;;5.93;;
54795;SDS011;40693;43.884;20.340;2023-08-07T05:07:14;7.95;;;5.90;;
54795;SDS011;40693;43.884;20.340;2023-08-07T05:09:40;10.88;;;5.57;;
54795;SDS011;40693;43.884;20.340;2023-08-07T05:12:06;6.57;;;5.57;;
54795;SDS011;40693;43.884;20.340;2023-08-07T05:14:32;8.52;;;4.97;;
54795;SDS011;40693;43.884;20.340;2023-08-07T05:16:58;12.02;;;7.72;;
54795;SDS011;40693;43.884;20.340;2023-08-07T05:19:26;12.77;;;8.60;;
54795;SDS011;40693;43.884;20.340;2023-08-07T05:21:52;8.13;;;4.63;;
54795;SDS011;40693;43.884;20.340;2023-08-07T05:24:18;7.57;;;5.35;;
54795;SDS011;40693;43.884;20.340;2023-08-07T05:26:44;5.75;;;4.95;;
54795;SDS011;40693;43.884;20.340;2023-08-07T05:29:10;9.80;;;4.68;;
54795;SDS011;40693;43.884;20.340;2023-08-07T05:31:35;8.30;;;4.85;;
54795;SDS011;40693;43.884;20.340;2023-08-07T05:34:02;6.68;;;4.55;;
54795;SDS011;40693;43.884;20.340;2023-08-07T05:36:28;6.72;;;4.45;;
54795;SDS011;40693;43.884;20.340;2023-08-07T05:38:55;7.80;;;3.92;;
54795;SDS011;40693;43.884;20.340;2023-08-07T05:41:20;8.35;;;3.97;;
54795;SDS011;40693;43.884;20.340;2023-08-07T05:43:46;7.65;;;5.13;;
54795;SDS011;40693;43.884;20.340;2023-08-07T05:46:12;7.38;;;3.88;;
54795;SDS011;40693;43.884;20.340;2023-08-07T05:48:38;6.93;;;3.33;;
54795;SDS011;40693;43.884;20.340;2023-08-07T05:51:03;5.53;;;3.38;;
54795;SDS011;40693;43.884;20.340;2023-08-07T05:53:29;7.25;;;4.07;;
54795;SDS011;40693;43.884;20.340;2023-08-07T05:55:55;6.35;;;4.65;;
54795;SDS011;40693;43.884;20.340;2023-08-07T05:58:21;4.95;;;3.30;;
54795;SDS011;40693;43.884;20.340;2023-08-07T06:00:47;8.60;;;3.72;;
54795;SDS011;40693;43.884;20.340;2023-08-07T06:03:12;5.60;;;3.20;;
54795;SDS011;40693;43.884;20.340;2023-08-07T06:05:38;7.18;;;4.72;;
54795;SDS011;40693;43.884;20.340;2023-08-07T06:08:04;5.80;;;3.53;;
54795;SDS011;40693;43.884;20.340;2023-08-07T06:10:29;5.30;;;3.40;;
54795;SDS011;40693;43.884;20.340;2023-08-07T06:12:55;7.40;;;3.08;;
54795;SDS011;40693;43.884;20.340;2023-08-07T06:15:21;7.60;;;3.50;;
54795;SDS011;40693;43.884;20.340;2023-08-07T06:17:47;6.68;;;3.88;;
54795;SDS011;40693;43.884;20.340;2023-08-07T06:20:12;13.05;;;3.50;;
54795;SDS011;40693;43.884;20.340;2023-08-07T06:22:39;6.82;;;3.45;;
54795;SDS011;40693;43.884;20.340;2023-08-07T06:25:06;6.82;;;3.95;;
54795;SDS011;40693;43.884;20.340;2023-08-07T06:27:32;6.00;;;4.05;;
54795;SDS011;40693;43.884;20.340;2023-08-07T06:29:58;7.43;;;4.25;;
54795;SDS011;40693;43.884;20.340;2023-08-07T06:32:24;6.50;;;3.35;;
54795;SDS011;40693;43.884;20.340;2023-08-07T06:34:51;5.70;;;4.18;;
54795;SDS011;40693;43.884;20.340;2023-08-07T06:37:17;6.78;;;3.30;;
54795;SDS011;40693;43.884;20.340;2023-08-07T06:39:43;8.85;;;3.92;;
54795;SDS011;40693;43.884;20.340;2023-08-07T06:42:09;4.88;;;3.17;;
54795;SDS011;40693;43.884;20.340;2023-08-07T06:44:35;5.25;;;3.63;;
54795;SDS011;40693;43.884;20.340;2023-08-07T06:47:00;8.63;;;3.67;;
54795;SDS011;40693;43.884;20.340;2023-08-07T06:49:26;8.63;;;4.60;;
54795;SDS011;40693;43.884;20.340;2023-08-07T06:51:52;9.55;;;5.53;;
54795;SDS011;40693;43.884;20.340;2023-08-07T06:54:18;8.80;;;4.70;;
54795;SDS011;40693;43.884;20.340;2023-08-07T06:56:43;9.05;;;5.05;;
54795;SDS011;40693;43.884;20.340;2023-08-07T06:59:09;9.07;;;5.13;;
54795;SDS011;40693;43.884;20.340;2023-08-07T07:01:35;10.27;;;4.82;;
54795;SDS011;40693;43.884;20.340;2023-08-07T07:04:01;8.20;;;5.50;;
54795;SDS011;40693;43.884;20.340;2023-08-07T07:06:27;6.68;;;5.30;;
54795;SDS011;40693;43.884;20.340;2023-08-07T07:08:53;6.38;;;4.38;;
54795;SDS011;40693;43.884;20.340;2023-08-07T07:11:19;7.65;;;4.85;;
54795;SDS011;40693;43.884;20.340;2023-08-07T07:13:47;7.72;;;5.78;;
54795;SDS011;40693;43.884;20.340;2023-08-07T07:16:13;7.68;;;4.68;;
54795;SDS011;40693;43.884;20.340;2023-08-07T07:18:39;9.60;;;5.63;;
54795;SDS011;40693;43.884;20.340;2023-08-07T07:21:04;9.32;;;5.22;;
54795;SDS011;40693;43.884;20.340;2023-08-07T07:23:30;9.15;;;5.05;;
54795;SDS011;40693;43.884;20.340;2023-08-07T07:25:56;9.70;;;5.70;;
54795;SDS011;40693;43.884;20.340;2023-08-07T07:28:22;10.77;;;5.57;;
54795;SDS011;40693;43.884;20.340;2023-08-07T07:30:49;8.82;;;6.15;;
54795;SDS011;40693;43.884;20.340;2023-08-07T07:33:15;8.57;;;6.95;;
54795;SDS011;40693;43.884;20.340;2023-08-07T07:35:41;10.55;;;6.38;;
54795;SDS011;40693;43.884;20.340;2023-08-07T07:38:07;13.88;;;6.70;;
54795;SDS011;40693;43.884;20.340;2023-08-07T07:40:36;9.95;;;7.28;;
54795;SDS011;40693;43.884;20.340;2023-08-07T07:43:03;13.98;;;6.97;;
54795;SDS011;40693;43.884;20.340;2023-08-07T07:45:28;10.98;;;6.90;;
54795;SDS011;40693;43.884;20.340;2023-08-07T07:47:54;9.70;;;5.65;;
54795;SDS011;40693;43.884;20.340;2023-08-07T07:50:20;11.10;;;6.35;;
54795;SDS011;40693;43.884;20.340;2023-08-07T07:52:46;8.88;;;5.55;;
54795;SDS011;40693;43.884;20.340;2023-08-07T07:55:12;7.78;;;5.32;;
54795;SDS011;40693;43.884;20.340;2023-08-07T07:57:39;10.73;;;5.90;;
54795;SDS011;40693;43.884;20.340;2023-08-07T08:00:06;11.30;;;6.80;;
54795;SDS011;40693;43.884;20.340;2023-08-07T08:02:35;18.17;;;7.10;;
54795;SDS011;40693;43.884;20.340;2023-08-07T08:05:01;9.65;;;6.32;;
54795;SDS011;40693;43.884;20.340;2023-08-07T08:07:27;9.20;;;6.82;;
54795;SDS011;40693;43.884;20.340;2023-08-07T08:09:53;8.15;;;5.53;;
54795;SDS011;40693;43.884;20.340;2023-08-07T08:12:19;10.73;;;7.47;;
54795;SDS011;40693;43.884;20.340;2023-08-07T08:14:47;10.45;;;7.32;;
54795;SDS011;40693;43.884;20.340;2023-08-07T08:17:13;8.70;;;6.28;;
54795;SDS011;40693;43.884;20.340;2023-08-07T08:19:38;9.73;;;5.55;;
54795;SDS011;40693;43.884;20.340;2023-08-07T08:22:04;7.88;;;5.25;;
54795;SDS011;40693;43.884;20.340;2023-08-07T08:24:30;7.18;;;4.97;;
54795;SDS011;40693;43.884;20.340;2023-08-07T08:26:56;9.02;;;4.65;;
54795;SDS011;40693;43.884;20.340;2023-08-07T08:29:22;12.88;;;5.18;;
54795;SDS011;40693;43.884;20.340;2023-08-07T08:31:48;7.10;;;4.45;;
54795;SDS011;40693;43.884;20.340;2023-08-07T08:34:14;6.43;;;4.65;;
54795;SDS011;40693;43.884;20.340;2023-08-07T08:36:39;9.20;;;5.20;;
54795;SDS011;40693;43.884;20.340;2023-08-07T08:39:05;9.57;;;5.50;;
54795;SDS011;40693;43.884;20.340;2023-08-07T08:41:31;9.15;;;5.63;;
54795;SDS011;40693;43.884;20.340;2023-08-07T08:43:57;7.78;;;5.22;;
54795;SDS011;40693;43.884;20.340;2023-08-07T08:46:26;9.90;;;5.00;;
54795;SDS011;40693;43.884;20.340;2023-08-07T08:48:56;9.85;;;4.80;;
54795;SDS011;40693;43.884;20.340;2023-08-07T08:51:24;8.95;;;5.10;;
54795;SDS011;40693;43.884;20.340;2023-08-07T08:53:51;8.20;;;5.43;;
54795;SDS011;40693;43.884;20.340;2023-08-07T08:56:18;8.02;;;5.40;;
54795;SDS011;40693;43.884;20.340;2023-08-07T08:58:47;6.68;;;5.53;;
54795;SDS011;40693;43.884;20.340;2023-08-07T09:01:13;9.00;;;6.60;;
54795;SDS011;40693;43.884;20.340;2023-08-07T09:03:39;8.57;;;5.53;;
54795;SDS011;40693;43.884;20.340;2023-08-07T09:06:05;8.95;;;4.97;;
54795;SDS011;40693;43.884;20.340;2023-08-07T09:08:32;9.02;;;5.68;;
54795;SDS011;40693;43.884;20.340;2023-08-07T09:10:59;9.77;;;6.07;;
54795;SDS011;40693;43.884;20.340;2023-08-07T09:13:26;9.82;;;5.20;;
54795;SDS011;40693;43.884;20.340;2023-08-07T09:15:53;8.60;;;5.47;;
54795;SDS011;40693;43.884;20.340;2023-08-07T09:18:20;8.52;;;6.50;;
54795;SDS011;40693;43.884;20.340;2023-08-07T09:20:46;8.70;;;6.03;;
54795;SDS011;40693;43.884;20.340;2023-08-07T09:23:12;8.20;;;5.22;;
54795;SDS011;40693;43.884;20.340;2023-08-07T09:25:38;7.28;;;4.43;;
54795;SDS011;40693;43.884;20.340;2023-08-07T09:28:04;5.60;;;4.50;;
54795;SDS011;40693;43.884;20.340;2023-08-07T09:30:31;8.93;;;5.10;;
54795;SDS011;40693;43.884;20.340;2023-08-07T09:32:58;6.63;;;4.65;;
54795;SDS011;40693;43.884;20.340;2023-08-07T09:35:24;8.13;;;4.22;;
54795;SDS011;40693;43.884;20.340;2023-08-07T09:37:51;5.88;;;3.55;;
54795;SDS011;40693;43.884;20.340;2023-08-07T09:40:17;6.78;;;3.75;;
54795;SDS011;40693;43.884;20.340;2023-08-07T09:42:43;4.63;;;3.42;;
54795;SDS011;40693;43.884;20.340;2023-08-07T09:45:25;4.07;;;3.00;;
54795;SDS011;40693;43.884;20.340;2023-08-07T09:50:24;7.15;;;3.78;;
54795;SDS011;40693;43.884;20.340;2023-08-07T09:52:51;5.72;;;4.07;;
54795;SDS011;40693;43.884;20.340;2023-08-07T09:55:17;5.13;;;3.17;;
54795;SDS011;40693;43.884;20.340;2023-08-07T09:57:43;4.95;;;4.00;;
54795;SDS011;40693;43.884;20.340;2023-08-07T10:00:10;4.85;;;3.25;;
54795;SDS011;40693;43.884;20.340;2023-08-07T10:02:37;5.70;;;3.30;;
54795;SDS011;40693;43.884;20.340;2023-08-07T10:05:06;4.55;;;3.17;;
54795;SDS011;40693;43.884;20.340;2023-08-07T10:07:34;3.75;;;3.03;;
54795;SDS011;40693;43.884;20.340;2023-08-07T10:09:59;9.80;;;4.30;;
54795;SDS011;40693;43.884;20.340;2023-08-07T10:12:28;5.18;;;2.78;;
54795;SDS011;40693;43.884;20.340;2023-08-07T10:14:54;5.18;;;2.83;;
54795;SDS011;40693;43.884;20.340;2023-08-07T10:17:23;3.58;;;2.42;;
54795;SDS011;40693;43.884;20.340;2023-08-07T10:19:50;4.40;;;2.65;;
54795;SDS011;40693;43.884;20.340;2023-08-07T10:22:16;4.43;;;2.60;;
54795;SDS011;40693;43.884;20.340;2023-08-07T10:24:47;4.30;;;2.47;;
54795;SDS011;40693;43.884;20.340;2023-08-07T10:27:17;5.85;;;2.47;;
54795;SDS011;40693;43.884;20.340;2023-08-07T10:29:45;4.10;;;2.08;;
54795;SDS011;40693;43.884;20.340;2023-08-07T10:32:13;2.00;;;1.60;;
54795;SDS011;40693;43.884;20.340;2023-08-07T10:34:46;2.17;;;1.70;;
54795;SDS011;40693;43.884;20.340;2023-08-07T10:40:02;2.05;;;1.38;;
54795;SDS011;40693;43.884;20.340;2023-08-07T10:42:33;2.75;;;1.60;;
54795;SDS011;40693;43.884;20.340;2023-08-07T10:45:16;2.53;;;1.60;;
54795;SDS011;40693;43.884;20.340;2023-08-07T10:47:43;2.85;;;1.13;;
54795;SDS011;40693;43.884;20.340;2023-08-07T10:50:09;2.45;;;1.52;;
54795;SDS011;40693;43.884;20.340;2023-08-07T10:52:37;2.10;;;1.52;;
54795;SDS011;40693;43.884;20.340;2023-08-07T10:55:12;1.58;;;1.00;;
54795;SDS011;40693;43.884;20.340;2023-08-07T10:57:39;1.55;;;1.27;;
54795;SDS011;40693;43.884;20.340;2023-08-07T11:00:06;1.20;;;1.00;;
54795;SDS011;40693;43.884;20.340;2023-08-07T11:02:35;1.75;;;1.33;;
54795;SDS011;40693;43.884;20.340;2023-08-07T11:05:04;1.50;;;1.23;;
54795;SDS011;40693;43.884;20.340;2023-08-07T11:07:31;2.28;;;1.15;;
54795;SDS011;40693;43.884;20.340;2023-08-07T11:09:58;2.47;;;1.48;;
54795;SDS011;40693;43.884;20.340;2023-08-07T11:12:24;1.77;;;1.35;;
54795;SDS011;40693;43.884;20.340;2023-08-07T11:14:51;1.63;;;1.27;;
54795;SDS011;40693;43.884;20.340;2023-08-07T11:17:26;4.10;;;2.03;;
54795;SDS011;40693;43.884;20.340;2023-08-07T11:19:53;2.75;;;1.30;;
54795;SDS011;40693;43.884;20.340;2023-08-07T11:22:22;1.42;;;1.20;;
54795;SDS011;40693;43.884;20.340;2023-08-07T11:24:49;1.45;;;1.35;;
54795;SDS011;40693;43.884;20.340;2023-08-07T11:27:15;1.85;;;1.27;;
54795;SDS011;40693;43.884;20.340;2023-08-07T11:29:41;2.47;;;1.80;;
54795;SDS011;40693;43.884;20.340;2023-08-07T11:32:10;1.45;;;1.15;;
54795;SDS011;40693;43.884;20.340;2023-08-07T11:34:35;2.00;;;1.10;;
54795;SDS011;40693;43.884;20.340;2023-08-07T11:37:01;2.17;;;1.38;;
54795;SDS011;40693;43.884;20.340;2023-08-07T11:39:28;2.03;;;1.30;;
54795;SDS011;40693;43.884;20.340;2023-08-07T11:41:54;1.13;;;1.05;;
54795;SDS011;40693;43.884;20.340;2023-08-07T11:44:20;2.95;;;1.52;;
54795;SDS011;40693;43.884;20.340;2023-08-07T11:46:47;1.38;;;1.20;;
54795;SDS011;40693;43.884;20.340;2023-08-07T11:49:15;2.58;;;1.60;;
54795;SDS011;40693;43.884;20.340;2023-08-07T11:51:40;3.15;;;1.23;;
54795;SDS011;40693;43.884;20.340;2023-08-07T11:54:06;2.67;;;1.55;;
54795;SDS011;40693;43.884;20.340;2023-08-07T11:56:32;1.67;;;1.23;;
54795;SDS011;40693;43.884;20.340;2023-08-07T11:58:58;1.38;;;1.15;;
54795;SDS011;40693;43.884;20.340;2023-08-07T12:01:25;1.10;;;0.95;;
54795;SDS011;40693;43.884;20.340;2023-08-07T12:03:55;2.13;;;1.70;;
54795;SDS011;40693;43.884;20.340;2023-08-07T12:06:25;1.92;;;1.30;;
54795;SDS011;40693;43.884;20.340;2023-08-07T12:08:54;3.65;;;1.35;;
54795;SDS011;40693;43.884;20.340;2023-08-07T12:11:21;1.63;;;1.23;;
54795;SDS011;40693;43.884;20.340;2023-08-07T12:13:47;2.83;;;1.75;;
54795;SDS011;40693;43.884;20.340;2023-08-07T12:16:14;2.15;;;1.50;;
54795;SDS011;40693;43.884;20.340;2023-08-07T12:18:47;2.88;;;1.50;;
54795;SDS011;40693;43.884;20.340;2023-08-07T12:21:15;4.07;;;1.38;;
54795;SDS011;40693;43.884;20.340;2023-08-07T12:23:43;2.58;;;1.77;;
54795;SDS011;40693;43.884;20.340;2023-08-07T12:26:09;2.35;;;1.90;;
54795;SDS011;40693;43.884;20.340;2023-08-07T12:28:35;4.43;;;2.05;;
54795;SDS011;40693;43.884;20.340;2023-08-07T12:31:01;1.73;;;1.58;;
54795;SDS011;40693;43.884;20.340;2023-08-07T12:33:30;5.07;;;1.80;;
54795;SDS011;40693;43.884;20.340;2023-08-07T12:35:57;1.88;;;1.30;;
54795;SDS011;40693;43.884;20.340;2023-08-07T12:38:23;4.93;;;1.70;;
54795;SDS011;40693;43.884;20.340;2023-08-07T12:40:49;2.25;;;1.92;;
54795;SDS011;40693;43.884;20.340;2023-08-07T12:43:15;1.85;;;1.45;;
54795;SDS011;40693;43.884;20.340;2023-08-07T12:45:41;3.28;;;1.60;;
54795;SDS011;40693;43.884;20.340;2023-08-07T12:48:07;3.80;;;1.77;;
54795;SDS011;40693;43.884;20.340;2023-08-07T12:50:32;3.80;;;1.60;;
54795;SDS011;40693;43.884;20.340;2023-08-07T12:52:58;3.00;;;2.10;;
54795;SDS011;40693;43.884;20.340;2023-08-07T12:55:24;3.08;;;1.60;;
54795;SDS011;40693;43.884;20.340;2023-08-07T12:57:52;3.88;;;1.77;;
54795;SDS011;40693;43.884;20.340;2023-08-07T13:00:18;2.20;;;1.50;;
54795;SDS011;40693;43.884;20.340;2023-08-07T13:02:47;1.75;;;1.52;;
54795;SDS011;40693;43.884;20.340;2023-08-07T13:05:14;2.17;;;1.60;;
54795;SDS011;40693;43.884;20.340;2023-08-07T13:07:44;3.00;;;1.50;;
54795;SDS011;40693;43.884;20.340;2023-08-07T13:10:12;3.03;;;1.85;;
54795;SDS011;40693;43.884;20.340;2023-08-07T13:12:40;1.90;;;1.50;;
54795;SDS011;40693;43.884;20.340;2023-08-07T13:15:08;2.20;;;1.50;;
54795;SDS011;40693;43.884;20.340;2023-08-07T13:17:38;2.25;;;1.73;;
54795;SDS011;40693;43.884;20.340;2023-08-07T13:20:05;2.63;;;1.40;;
54795;SDS011;40693;43.884;20.340;2023-08-07T13:22:34;3.33;;;1.75;;
54795;SDS011;40693;43.884;20.340;2023-08-07T13:25:04;1.90;;;1.38;;
54795;SDS011;40693;43.884;20.340;2023-08-07T13:27:30;4.70;;;2.17;;
54795;SDS011;40693;43.884;20.340;2023-08-07T13:29:57;1.92;;;1.65;;
54795;SDS011;40693;43.884;20.340;2023-08-07T13:32:23;1.65;;;1.50;;
54795;SDS011;40693;43.884;20.340;2023-08-07T13:34:48;2.40;;;1.75;;
54795;SDS011;40693;43.884;20.340;2023-08-07T13:37:14;2.63;;;1.48;;
54795;SDS011;40693;43.884;20.340;2023-08-07T13:39:40;2.80;;;1.88;;
54795;SDS011;40693;43.884;20.340;2023-08-07T13:42:06;3.13;;;2.00;;
54795;SDS011;40693;43.884;20.340;2023-08-07T13:44:32;4.85;;;1.95;;
54795;SDS011;40693;43.884;20.340;2023-08-07T13:46:58;3.42;;;1.75;;
54795;SDS011;40693;43.884;20.340;2023-08-07T13:49:24;3.78;;;2.35;;
54795;SDS011;40693;43.884;20.340;2023-08-07T13:51:50;2.97;;;1.90;;
54795;SDS011;40693;43.884;20.340;2023-08-07T13:54:15;3.28;;;2.35;;
54795;SDS011;40693;43.884;20.340;2023-08-07T13:56:41;3.85;;;2.08;;
54795;SDS011;40693;43.884;20.340;2023-08-07T13:59:07;4.85;;;2.72;;
54795;SDS011;40693;43.884;20.340;2023-08-07T14:01:34;3.33;;;2.08;;
54795;SDS011;40693;43.884;20.340;2023-08-07T14:04:00;5.05;;;2.10;;
54795;SDS011;40693;43.884;20.340;2023-08-07T14:06:27;3.58;;;2.65;;
54795;SDS011;40693;43.884;20.340;2023-08-07T14:08:53;4.03;;;2.15;;
54795;SDS011;40693;43.884;20.340;2023-08-07T14:11:19;4.03;;;2.20;;
54795;SDS011;40693;43.884;20.340;2023-08-07T14:13:45;4.05;;;2.13;;
54795;SDS011;40693;43.884;20.340;2023-08-07T14:16:12;5.00;;;2.10;;
54795;SDS011;40693;43.884;20.340;2023-08-07T14:18:38;2.58;;;2.10;;
54795;SDS011;40693;43.884;20.340;2023-08-07T14:21:03;5.35;;;2.33;;
54795;SDS011;40693;43.884;20.340;2023-08-07T14:23:29;7.32;;;2.22;;
54795;SDS011;40693;43.884;20.340;2023-08-07T14:25:55;3.70;;;2.17;;
54795;SDS011;40693;43.884;20.340;2023-08-07T14:28:21;3.35;;;2.22;;
54795;SDS011;40693;43.884;20.340;2023-08-07T14:30:47;5.25;;;2.80;;
54795;SDS011;40693;43.884;20.340;2023-08-07T14:33:13;10.38;;;3.47;;
54795;SDS011;40693;43.884;20.340;2023-08-07T14:35:39;4.90;;;2.72;;
54795;SDS011;40693;43.884;20.340;2023-08-07T14:38:05;3.63;;;2.60;;
54795;SDS011;40693;43.884;20.340;2023-08-07T14:40:30;4.53;;;2.35;;
54795;SDS011;40693;43.884;20.340;2023-08-07T14:42:56;3.97;;;2.53;;
54795;SDS011;40693;43.884;20.340;2023-08-07T14:45:22;2.25;;;1.90;;